Handytankers Glory — C6WH4 — position and weather

sailwx.info

Track history (hours):
 
Tides and Currents Weather Stations Pressure Air Temp Water Temp Dewpoint Dewpoint Depression Visibility Wind Speed Wind Dir Waves Ship Positions

Handytankers Glory

Last reported at 2017-Dec-07 20:47 UTC. Time now 2017-Dec-11 17:05 UTC.
Position N 37°59' E 024°39'.

Length 171 m; draft 11 m.

Type: Tanker. MMSI: 309553000.

Date/timePositionNaut miles runAvg speedWind from/ knotsBaromVisibWave heightAir tempDewpointWater temp
2017-Dec-07 20:47N 37°59' E 024°39'311.5
2017-Dec-07 20:29N 37°56' E 024°38'611.5
2017-Dec-07 20:00N 37°50' E 024°35'611.5
2017-Dec-07 19:30N 37°45' E 024°33'611.6
2017-Dec-07 19:00N 37°39' E 024°31'611.3
2017-Dec-07 18:30N 37°35' E 024°27'611.4
2017-Dec-07 18:00N 37°30' E 024°22'611.7
2017-Dec-07 17:30N 37°26' E 024°18'611.5
2017-Dec-07 17:00N 37°21' E 024°14'611.7
2017-Dec-07 16:30N 37°16' E 024°09'611.3
2017-Dec-07 16:00N 37°12' E 024°05'611.1
2017-Dec-07 15:30N 37°07' E 024°01'611.5
2017-Dec-07 15:00N 37°03' E 023°57'611.1
2017-Dec-07 14:30N 36°58' E 023°52'611.4
2017-Dec-07 14:00N 36°54' E 023°48'611.0
2017-Dec-07 13:27N 36°48' E 023°44'1011.2
2017-Dec-07 12:31N 36°39' E 023°38'111.6
2017-Dec-07 12:27N 36°39' E 023°37'  
2017-Dec-02 02:29N 35°60' W 005°11'713.8
2017-Dec-02 02:00N 35°59' W 005°19'713.4
2017-Dec-02 01:30N 35°57' W 005°27'266 9.5
2017-Nov-30 21:33N 38°23' W 010°06'111.4
2017-Nov-30 21:27N 38°24' W 010°07'3211.4
2017-Nov-30 18:38N 38°56' W 010°12'111.2
2017-Nov-30 18:30N 38°57' W 010°12'  
2017-Nov-27 20:59N 51°05' W 005°45'  
Track history (hours):
 
Tides and Currents Weather Stations Pressure Air Temp Water Temp Dewpoint Dewpoint Depression Visibility Wind Speed Wind Dir Waves Ship Positions

Handytankers Glory

Last reported at 2017-Dec-07 20:47 UTC. Time now 2017-Dec-11 17:05 UTC.
Position N 37°59' E 024°39'.

Length 171 m; draft 11 m.

Type: Tanker. MMSI: 309553000.

Date/timePositionNaut miles runAvg speedWind from/ knotsBaromVisibWave heightAir tempDewpointWater temp
2017-Dec-07 20:47N 37°59' E 024°39'311.5
2017-Dec-07 20:29N 37°56' E 024°38'611.5
2017-Dec-07 20:00N 37°50' E 024°35'611.5
2017-Dec-07 19:30N 37°45' E 024°33'611.6
2017-Dec-07 19:00N 37°39' E 024°31'611.3
2017-Dec-07 18:30N 37°35' E 024°27'611.4
2017-Dec-07 18:00N 37°30' E 024°22'611.7
2017-Dec-07 17:30N 37°26' E 024°18'611.5
2017-Dec-07 17:00N 37°21' E 024°14'611.7
2017-Dec-07 16:30N 37°16' E 024°09'611.3
2017-Dec-07 16:00N 37°12' E 024°05'611.1
2017-Dec-07 15:30N 37°07' E 024°01'611.5
2017-Dec-07 15:00N 37°03' E 023°57'611.1
2017-Dec-07 14:30N 36°58' E 023°52'611.4
2017-Dec-07 14:00N 36°54' E 023°48'611.0
2017-Dec-07 13:27N 36°48' E 023°44'1011.2
2017-Dec-07 12:31N 36°39' E 023°38'111.6
2017-Dec-07 12:27N 36°39' E 023°37'  
2017-Dec-02 02:29N 35°60' W 005°11'713.8
2017-Dec-02 02:00N 35°59' W 005°19'713.4
2017-Dec-02 01:30N 35°57' W 005°27'266 9.5
2017-Nov-30 21:33N 38°23' W 010°06'111.4
2017-Nov-30 21:27N 38°24' W 010°07'3211.4
2017-Nov-30 18:38N 38°56' W 010°12'111.2
2017-Nov-30 18:30N 38°57' W 010°12'  
2017-Nov-27 20:59N 51°05' W 005°45'  

Dump ship's entire track history